Terminal Aerodrome Forecast
Issued by NWS Omaha/Valley, NE

Home | Current Version | Previous Version | Graphics & Text | Print | Product List | Glossary On
Versions: 1 2 3 4 5 6 7 8 9 10 11 12 13 14 15
000
FTUS43 KOAX 221608 AAA
TAFOFK
TAF AMD
KOFK 221608Z 2216/2312 19013G21KT P6SM BKN250
     FM222200 20012KT P6SM SCT090 BKN250
     FM230100 20008KT P6SM SCT250
     FM230600 29007KT P6SM FEW250=

USA.gov is the U.S. government's official web portal to all federal, state and local government web resources and services.